<?xml version="1.0" encoding="UTF-8" standalone="no" ?>
<gpx xmlns="http://www.topografix.com/GPX/1/1" xmlns:xsi="http://www.w3.org/2001/XMLSchema-instance" xsi:schemaLocation="http://www.topografix.com/GPX/1/1 http://www.topografix.com/GPX/1/1/gpx.xsd" version="1.1" creator="VisuGPX - https://www.visugpx.com">
  <metadata>
    <name>Les ouvrages hydrauliques d Abeau</name>
    <desc><![CDATA[Une petite boucle qui témoigne de l'activité de nos anciens.]]></desc>
  </metadata>
  <trk>
    <name><![CDATA[Les ouvrages hydrauliques d Abeau_1]]></name>
    <desc><![CDATA[]]></desc>
    <trkseg>
      <trkpt lat="44.35146" lon="4.09409">
        <ele>245.5</ele>
        <time>2025-02-07T09:34:01Z</time>
        <extensions>
          <visugpx:TrkExtension xmlns:visugpx="https://www.visugpx.com/editgpx/">
            <visugpx:node>1</visugpx:node>
            </visugpx:TrkExtension>
        </extensions>
      </trkpt>
      <trkpt lat="44.35131" lon="4.0941">
        <ele>254</ele>
        <time>2025-02-07T09:34:06Z</time>
      </trkpt>
      <trkpt lat="44.35127" lon="4.09405">
        <ele>255</ele>
        <time>2025-02-07T09:34:13Z</time>
      </trkpt>
      <trkpt lat="44.35123" lon="4.09392">
        <ele>255</ele>
        <time>2025-02-07T09:34:27Z</time>
      </trkpt>
      <trkpt lat="44.35114" lon="4.09376">
        <ele>256</ele>
        <time>2025-02-07T09:34:46Z</time>
      </trkpt>
      <trkpt lat="44.35107" lon="4.09366">
        <ele>256</ele>
        <time>2025-02-07T09:35:00Z</time>
      </trkpt>
      <trkpt lat="44.35094" lon="4.09322">
        <ele>257</ele>
        <time>2025-02-07T09:35:45Z</time>
      </trkpt>
      <trkpt lat="44.35082" lon="4.09267">
        <ele>257</ele>
        <time>2025-02-07T09:36:40Z</time>
      </trkpt>
      <trkpt lat="44.35074" lon="4.09251">
        <ele>258</ele>
        <time>2025-02-07T09:36:59Z</time>
      </trkpt>
      <trkpt lat="44.35061" lon="4.09207">
        <ele>258</ele>
        <time>2025-02-07T09:37:44Z</time>
      </trkpt>
      <trkpt lat="44.35044" lon="4.09162">
        <ele>258</ele>
        <time>2025-02-07T09:38:33Z</time>
      </trkpt>
      <trkpt lat="44.35035" lon="4.09146">
        <ele>259</ele>
        <time>2025-02-07T09:38:52Z</time>
      </trkpt>
      <trkpt lat="44.35013" lon="4.09076">
        <ele>260</ele>
        <time>2025-02-07T09:40:05Z</time>
      </trkpt>
      <trkpt lat="44.35002" lon="4.09052">
        <ele>260</ele>
        <time>2025-02-07T09:40:32Z</time>
      </trkpt>
      <trkpt lat="44.34995" lon="4.09011">
        <ele>261</ele>
        <time>2025-02-07T09:41:13Z</time>
      </trkpt>
      <trkpt lat="44.34993" lon="4.08991">
        <ele>261</ele>
        <time>2025-02-07T09:41:32Z</time>
      </trkpt>
      <trkpt lat="44.34991" lon="4.08986">
        <ele>262</ele>
        <time>2025-02-07T09:41:37Z</time>
      </trkpt>
      <trkpt lat="44.34986" lon="4.08963">
        <ele>262</ele>
        <time>2025-02-07T09:42:00Z</time>
      </trkpt>
      <trkpt lat="44.34987" lon="4.08957">
        <ele>262</ele>
        <time>2025-02-07T09:42:06Z</time>
      </trkpt>
      <trkpt lat="44.34982" lon="4.08914">
        <ele>263</ele>
        <time>2025-02-07T09:42:48Z</time>
      </trkpt>
      <trkpt lat="44.34981" lon="4.08874">
        <ele>264</ele>
        <time>2025-02-07T09:43:26Z</time>
      </trkpt>
      <trkpt lat="44.34971" lon="4.0885">
        <ele>266</ele>
        <time>2025-02-07T09:43:52Z</time>
      </trkpt>
      <trkpt lat="44.34971" lon="4.08817">
        <ele>266</ele>
        <time>2025-02-07T09:44:24Z</time>
      </trkpt>
      <trkpt lat="44.34969" lon="4.08806">
        <ele>267</ele>
        <time>2025-02-07T09:44:35Z</time>
      </trkpt>
      <trkpt lat="44.34975" lon="4.08781">
        <ele>265</ele>
        <time>2025-02-07T09:45:00Z</time>
      </trkpt>
      <trkpt lat="44.34983" lon="4.08764">
        <ele>264</ele>
        <time>2025-02-07T09:45:19Z</time>
      </trkpt>
      <trkpt lat="44.34987" lon="4.08742">
        <ele>264</ele>
        <time>2025-02-07T09:45:41Z</time>
      </trkpt>
      <trkpt lat="44.34987" lon="4.08722">
        <ele>264</ele>
        <time>2025-02-07T09:46:00Z</time>
      </trkpt>
      <trkpt lat="44.34985" lon="4.08714">
        <ele>265</ele>
        <time>2025-02-07T09:46:08Z</time>
      </trkpt>
      <trkpt lat="44.34979" lon="4.08706">
        <ele>266</ele>
        <time>2025-02-07T09:46:19Z</time>
      </trkpt>
      <trkpt lat="44.34969" lon="4.08706">
        <ele>268</ele>
        <time>2025-02-07T09:46:32Z</time>
      </trkpt>
      <trkpt lat="44.34973" lon="4.08706">
        <ele>267</ele>
        <time>2025-02-07T09:46:38Z</time>
      </trkpt>
      <trkpt lat="44.34975" lon="4.08695">
        <ele>267</ele>
        <time>2025-02-07T09:46:49Z</time>
      </trkpt>
      <trkpt lat="44.34973" lon="4.08689">
        <ele>268</ele>
        <time>2025-02-07T09:46:55Z</time>
      </trkpt>
      <trkpt lat="44.34957" lon="4.08658">
        <ele>271</ele>
        <time>2025-02-07T09:47:31Z</time>
      </trkpt>
      <trkpt lat="44.34954" lon="4.08637">
        <ele>271</ele>
        <time>2025-02-07T09:47:52Z</time>
      </trkpt>
      <trkpt lat="44.34955" lon="4.08617">
        <ele>271</ele>
        <time>2025-02-07T09:48:11Z</time>
      </trkpt>
      <trkpt lat="44.34964" lon="4.08569">
        <ele>271</ele>
        <time>2025-02-07T09:48:58Z</time>
      </trkpt>
      <trkpt lat="44.34968" lon="4.08551">
        <ele>271</ele>
        <time>2025-02-07T09:49:16Z</time>
      </trkpt>
      <trkpt lat="44.34971" lon="4.08546">
        <ele>271</ele>
        <time>2025-02-07T09:49:23Z</time>
      </trkpt>
      <trkpt lat="44.34976" lon="4.0852">
        <ele>272</ele>
        <time>2025-02-07T09:49:48Z</time>
      </trkpt>
      <trkpt lat="44.34983" lon="4.085">
        <ele>271</ele>
        <time>2025-02-07T09:50:10Z</time>
      </trkpt>
      <trkpt lat="44.34983" lon="4.08482">
        <ele>272</ele>
        <time>2025-02-07T09:50:27Z</time>
      </trkpt>
      <trkpt lat="44.34981" lon="4.0847">
        <ele>273</ele>
        <time>2025-02-07T09:50:38Z</time>
      </trkpt>
      <trkpt lat="44.34983" lon="4.08448">
        <ele>273</ele>
        <time>2025-02-07T09:51:00Z</time>
      </trkpt>
      <trkpt lat="44.34992" lon="4.08423">
        <ele>273</ele>
        <time>2025-02-07T09:51:26Z</time>
      </trkpt>
      <trkpt lat="44.35016" lon="4.08395">
        <ele>273</ele>
        <time>2025-02-07T09:52:08Z</time>
      </trkpt>
      <trkpt lat="44.35026" lon="4.08355">
        <ele>276</ele>
        <time>2025-02-07T09:52:48Z</time>
      </trkpt>
      <trkpt lat="44.35025" lon="4.08333">
        <ele>278</ele>
        <time>2025-02-07T09:53:10Z</time>
      </trkpt>
      <trkpt lat="44.3501" lon="4.08307">
        <ele>282</ele>
        <time>2025-02-07T09:53:41Z</time>
      </trkpt>
      <trkpt lat="44.3501" lon="4.08299">
        <ele>282</ele>
        <time>2025-02-07T09:53:49Z</time>
      </trkpt>
      <trkpt lat="44.35012" lon="4.08287">
        <ele>282</ele>
        <time>2025-02-07T09:54:01Z</time>
      </trkpt>
      <trkpt lat="44.35025" lon="4.08267">
        <ele>281</ele>
        <time>2025-02-07T09:54:27Z</time>
      </trkpt>
      <trkpt lat="44.35032" lon="4.0824">
        <ele>282</ele>
        <time>2025-02-07T09:54:54Z</time>
      </trkpt>
      <trkpt lat="44.35061" lon="4.08177">
        <ele>284</ele>
        <time>2025-02-07T09:56:05Z</time>
      </trkpt>
      <trkpt lat="44.35066" lon="4.08171">
        <ele>283</ele>
        <time>2025-02-07T09:56:14Z</time>
      </trkpt>
      <trkpt lat="44.35069" lon="4.08163">
        <ele>284</ele>
        <time>2025-02-07T09:56:23Z</time>
      </trkpt>
      <trkpt lat="44.3509" lon="4.08144">
        <ele>285</ele>
        <time>2025-02-07T09:56:56Z</time>
      </trkpt>
      <trkpt lat="44.35098" lon="4.08131">
        <ele>287</ele>
        <time>2025-02-07T09:57:13Z</time>
      </trkpt>
      <trkpt lat="44.35103" lon="4.08129">
        <ele>286</ele>
        <time>2025-02-07T09:57:20Z</time>
      </trkpt>
      <trkpt lat="44.35111" lon="4.08113">
        <ele>288</ele>
        <time>2025-02-07T09:57:38Z</time>
      </trkpt>
      <trkpt lat="44.35119" lon="4.08106">
        <ele>288</ele>
        <time>2025-02-07T09:57:51Z</time>
      </trkpt>
      <trkpt lat="44.35141" lon="4.08075">
        <ele>289</ele>
        <time>2025-02-07T09:58:32Z</time>
      </trkpt>
      <trkpt lat="44.35146" lon="4.08077">
        <ele>287</ele>
        <time>2025-02-07T09:58:39Z</time>
      </trkpt>
      <trkpt lat="44.35151" lon="4.08074">
        <ele>286</ele>
        <time>2025-02-07T09:58:47Z</time>
      </trkpt>
      <trkpt lat="44.35156" lon="4.08066">
        <ele>287</ele>
        <time>2025-02-07T09:58:57Z</time>
      </trkpt>
      <trkpt lat="44.35162" lon="4.08064">
        <ele>286</ele>
        <time>2025-02-07T09:59:05Z</time>
      </trkpt>
      <trkpt lat="44.35196" lon="4.08026">
        <ele>288</ele>
        <time>2025-02-07T10:00:03Z</time>
      </trkpt>
      <trkpt lat="44.35201" lon="4.08015">
        <ele>289</ele>
        <time>2025-02-07T10:00:16Z</time>
      </trkpt>
      <trkpt lat="44.35218" lon="4.08002">
        <ele>286</ele>
        <time>2025-02-07T10:00:41Z</time>
      </trkpt>
      <trkpt lat="44.35225" lon="4.07993">
        <ele>286</ele>
        <time>2025-02-07T10:00:54Z</time>
      </trkpt>
      <trkpt lat="44.3523" lon="4.07991">
        <ele>285</ele>
        <time>2025-02-07T10:01:01Z</time>
      </trkpt>
      <trkpt lat="44.35237" lon="4.07981">
        <ele>284</ele>
        <time>2025-02-07T10:01:14Z</time>
      </trkpt>
      <trkpt lat="44.35249" lon="4.07979">
        <ele>281</ele>
        <time>2025-02-07T10:01:31Z</time>
      </trkpt>
      <trkpt lat="44.35253" lon="4.07991">
        <ele>280</ele>
        <time>2025-02-07T10:01:43Z</time>
      </trkpt>
      <trkpt lat="44.35257" lon="4.07994">
        <ele>281</ele>
        <time>2025-02-07T10:01:49Z</time>
      </trkpt>
      <trkpt lat="44.35254" lon="4.08008">
        <ele>280</ele>
        <time>2025-02-07T10:02:03Z</time>
      </trkpt>
      <trkpt lat="44.35256" lon="4.0803">
        <ele>269.4</ele>
        <time>2025-02-07T10:02:11Z</time>
      </trkpt>
      <trkpt lat="44.35254" lon="4.08032">
        <ele>282</ele>
        <time>2025-02-07T08:40:03Z</time>
      </trkpt>
      <trkpt lat="44.35247" lon="4.08034">
        <ele>281</ele>
        <time>2025-02-07T08:43:19Z</time>
      </trkpt>
      <trkpt lat="44.35243" lon="4.08036">
        <ele>282</ele>
        <time>2025-02-07T08:43:25Z</time>
      </trkpt>
      <trkpt lat="44.3524" lon="4.08042">
        <ele>282</ele>
        <time>2025-02-07T08:43:32Z</time>
      </trkpt>
      <trkpt lat="44.35237" lon="4.0807">
        <ele>283</ele>
        <time>2025-02-07T08:43:59Z</time>
      </trkpt>
      <trkpt lat="44.35215" lon="4.08136">
        <ele>282</ele>
        <time>2025-02-07T08:45:08Z</time>
      </trkpt>
      <trkpt lat="44.35202" lon="4.08198">
        <ele>279</ele>
        <time>2025-02-07T08:46:10Z</time>
      </trkpt>
      <trkpt lat="44.35194" lon="4.08226">
        <ele>277</ele>
        <time>2025-02-07T08:46:39Z</time>
      </trkpt>
      <trkpt lat="44.35195" lon="4.08233">
        <ele>277</ele>
        <time>2025-02-07T08:46:46Z</time>
      </trkpt>
      <trkpt lat="44.3519" lon="4.08256">
        <ele>276</ele>
        <time>2025-02-07T08:47:09Z</time>
      </trkpt>
      <trkpt lat="44.35186" lon="4.08261">
        <ele>275</ele>
        <time>2025-02-07T08:47:16Z</time>
      </trkpt>
      <trkpt lat="44.3519" lon="4.08282">
        <ele>275</ele>
        <time>2025-02-07T08:47:36Z</time>
      </trkpt>
      <trkpt lat="44.35193" lon="4.08289">
        <ele>275</ele>
        <time>2025-02-07T08:47:44Z</time>
      </trkpt>
      <trkpt lat="44.35198" lon="4.08324">
        <ele>275</ele>
        <time>2025-02-07T08:48:18Z</time>
      </trkpt>
      <trkpt lat="44.35201" lon="4.08329">
        <ele>276</ele>
        <time>2025-02-07T08:48:25Z</time>
      </trkpt>
      <trkpt lat="44.35203" lon="4.08362">
        <ele>275</ele>
        <time>2025-02-07T08:48:56Z</time>
      </trkpt>
      <trkpt lat="44.35206" lon="4.08367">
        <ele>275</ele>
        <time>2025-02-07T08:49:02Z</time>
      </trkpt>
      <trkpt lat="44.35207" lon="4.08375">
        <ele>275</ele>
        <time>2025-02-07T08:49:10Z</time>
      </trkpt>
      <trkpt lat="44.35214" lon="4.08385">
        <ele>276</ele>
        <time>2025-02-07T08:49:23Z</time>
      </trkpt>
      <trkpt lat="44.35213" lon="4.08418">
        <ele>274</ele>
        <time>2025-02-07T08:49:55Z</time>
      </trkpt>
      <trkpt lat="44.35217" lon="4.08429">
        <ele>274</ele>
        <time>2025-02-07T08:50:07Z</time>
      </trkpt>
      <trkpt lat="44.35217" lon="4.08438">
        <ele>274</ele>
        <time>2025-02-07T08:50:15Z</time>
      </trkpt>
      <trkpt lat="44.35226" lon="4.08467">
        <ele>274</ele>
        <time>2025-02-07T08:50:46Z</time>
      </trkpt>
      <trkpt lat="44.35226" lon="4.08518">
        <ele>271</ele>
        <time>2025-02-07T08:51:34Z</time>
      </trkpt>
      <trkpt lat="44.35232" lon="4.0853">
        <ele>271</ele>
        <time>2025-02-07T08:51:48Z</time>
      </trkpt>
      <trkpt lat="44.35234" lon="4.08545">
        <ele>270</ele>
        <time>2025-02-07T08:52:03Z</time>
      </trkpt>
      <trkpt lat="44.35233" lon="4.08551">
        <ele>269</ele>
        <time>2025-02-07T08:52:09Z</time>
      </trkpt>
      <trkpt lat="44.35221" lon="4.08557">
        <ele>268</ele>
        <time>2025-02-07T08:52:26Z</time>
      </trkpt>
      <trkpt lat="44.35217" lon="4.08557">
        <ele>267</ele>
        <time>2025-02-07T08:52:31Z</time>
      </trkpt>
      <trkpt lat="44.35212" lon="4.0856">
        <ele>267</ele>
        <time>2025-02-07T08:52:38Z</time>
      </trkpt>
      <trkpt lat="44.35206" lon="4.0856">
        <ele>266</ele>
        <time>2025-02-07T08:52:46Z</time>
      </trkpt>
      <trkpt lat="44.35187" lon="4.08581">
        <ele>264</ele>
        <time>2025-02-07T08:53:19Z</time>
      </trkpt>
      <trkpt lat="44.35178" lon="4.08583">
        <ele>263</ele>
        <time>2025-02-07T08:53:31Z</time>
      </trkpt>
      <trkpt lat="44.35164" lon="4.08583">
        <ele>262</ele>
        <time>2025-02-07T08:53:49Z</time>
      </trkpt>
      <trkpt lat="44.35159" lon="4.08589">
        <ele>262</ele>
        <time>2025-02-07T08:53:58Z</time>
      </trkpt>
      <trkpt lat="44.3515" lon="4.08617">
        <ele>262</ele>
        <time>2025-02-07T08:54:27Z</time>
      </trkpt>
      <trkpt lat="44.35154" lon="4.08624">
        <ele>262</ele>
        <time>2025-02-07T08:54:36Z</time>
      </trkpt>
      <trkpt lat="44.35153" lon="4.08634">
        <ele>262</ele>
        <time>2025-02-07T08:54:46Z</time>
      </trkpt>
      <trkpt lat="44.35155" lon="4.08643">
        <ele>262</ele>
        <time>2025-02-07T08:54:55Z</time>
      </trkpt>
      <trkpt lat="44.3515" lon="4.0864">
        <ele>262</ele>
        <time>2025-02-07T08:55:02Z</time>
      </trkpt>
      <trkpt lat="44.35149" lon="4.08623">
        <ele>262</ele>
        <time>2025-02-07T08:55:18Z</time>
      </trkpt>
      <trkpt lat="44.35144" lon="4.0862">
        <ele>262</ele>
        <time>2025-02-07T08:55:25Z</time>
      </trkpt>
      <trkpt lat="44.35151" lon="4.08616">
        <ele>262</ele>
        <time>2025-02-07T08:55:36Z</time>
      </trkpt>
      <trkpt lat="44.35153" lon="4.08606">
        <ele>262</ele>
        <time>2025-02-07T08:55:45Z</time>
      </trkpt>
      <trkpt lat="44.35159" lon="4.08589">
        <ele>262</ele>
        <time>2025-02-07T08:56:04Z</time>
      </trkpt>
      <trkpt lat="44.35165" lon="4.08579">
        <ele>262</ele>
        <time>2025-02-07T08:56:16Z</time>
      </trkpt>
      <trkpt lat="44.35176" lon="4.08578">
        <ele>263</ele>
        <time>2025-02-07T08:56:31Z</time>
      </trkpt>
      <trkpt lat="44.35193" lon="4.08574">
        <ele>264</ele>
        <time>2025-02-07T08:56:54Z</time>
      </trkpt>
      <trkpt lat="44.35196" lon="4.08567">
        <ele>265</ele>
        <time>2025-02-07T08:57:02Z</time>
      </trkpt>
      <trkpt lat="44.35199" lon="4.08564">
        <ele>265</ele>
        <time>2025-02-07T08:57:06Z</time>
      </trkpt>
      <trkpt lat="44.35215" lon="4.08556">
        <ele>267</ele>
        <time>2025-02-07T08:57:29Z</time>
      </trkpt>
      <trkpt lat="44.3522" lon="4.08555">
        <ele>268</ele>
        <time>2025-02-07T08:57:36Z</time>
      </trkpt>
      <trkpt lat="44.35234" lon="4.08548">
        <ele>269</ele>
        <time>2025-02-07T08:57:56Z</time>
      </trkpt>
      <trkpt lat="44.35237" lon="4.08543">
        <ele>270</ele>
        <time>2025-02-07T08:58:02Z</time>
      </trkpt>
      <trkpt lat="44.35241" lon="4.08549">
        <ele>270</ele>
        <time>2025-02-07T08:58:10Z</time>
      </trkpt>
      <trkpt lat="44.35254" lon="4.08543">
        <ele>272</ele>
        <time>2025-02-07T08:58:28Z</time>
      </trkpt>
      <trkpt lat="44.35266" lon="4.08541">
        <ele>273</ele>
        <time>2025-02-07T08:58:44Z</time>
      </trkpt>
      <trkpt lat="44.35281" lon="4.08535">
        <ele>275</ele>
        <time>2025-02-07T08:59:05Z</time>
      </trkpt>
      <trkpt lat="44.35311" lon="4.08529">
        <ele>277</ele>
        <time>2025-02-07T08:59:45Z</time>
      </trkpt>
      <trkpt lat="44.35315" lon="4.08535">
        <ele>278</ele>
        <time>2025-02-07T08:59:53Z</time>
      </trkpt>
      <trkpt lat="44.35328" lon="4.08545">
        <ele>278</ele>
        <time>2025-02-07T09:00:13Z</time>
      </trkpt>
      <trkpt lat="44.35324" lon="4.08549">
        <ele>278</ele>
        <time>2025-02-07T09:00:20Z</time>
      </trkpt>
      <trkpt lat="44.35318" lon="4.08548">
        <ele>277</ele>
        <time>2025-02-07T09:00:28Z</time>
      </trkpt>
      <trkpt lat="44.35307" lon="4.08565">
        <ele>276</ele>
        <time>2025-02-07T09:00:50Z</time>
      </trkpt>
      <trkpt lat="44.35303" lon="4.08569">
        <ele>275</ele>
        <time>2025-02-07T09:00:56Z</time>
      </trkpt>
      <trkpt lat="44.35285" lon="4.08575">
        <ele>273</ele>
        <time>2025-02-07T09:01:21Z</time>
      </trkpt>
      <trkpt lat="44.35269" lon="4.08587">
        <ele>271</ele>
        <time>2025-02-07T09:01:45Z</time>
      </trkpt>
      <trkpt lat="44.35265" lon="4.08591">
        <ele>270</ele>
        <time>2025-02-07T09:01:52Z</time>
      </trkpt>
      <trkpt lat="44.3526" lon="4.08599">
        <ele>270</ele>
        <time>2025-02-07T09:02:02Z</time>
      </trkpt>
      <trkpt lat="44.35243" lon="4.08611">
        <ele>269</ele>
        <time>2025-02-07T09:02:27Z</time>
      </trkpt>
      <trkpt lat="44.3524" lon="4.08615">
        <ele>269</ele>
        <time>2025-02-07T09:02:33Z</time>
      </trkpt>
      <trkpt lat="44.35224" lon="4.08626">
        <ele>268</ele>
        <time>2025-02-07T09:02:56Z</time>
      </trkpt>
      <trkpt lat="44.35219" lon="4.08631">
        <ele>267</ele>
        <time>2025-02-07T09:03:05Z</time>
      </trkpt>
      <trkpt lat="44.35217" lon="4.08637">
        <ele>267</ele>
        <time>2025-02-07T09:03:11Z</time>
      </trkpt>
      <trkpt lat="44.35219" lon="4.08637">
        <ele>268</ele>
        <time>2025-02-07T09:03:14Z</time>
      </trkpt>
      <trkpt lat="44.35212" lon="4.08642">
        <ele>267</ele>
        <time>2025-02-07T09:03:24Z</time>
      </trkpt>
      <trkpt lat="44.35201" lon="4.08641">
        <ele>266</ele>
        <time>2025-02-07T09:03:39Z</time>
      </trkpt>
      <trkpt lat="44.35186" lon="4.08657">
        <ele>265</ele>
        <time>2025-02-07T09:04:04Z</time>
      </trkpt>
      <trkpt lat="44.35181" lon="4.08668">
        <ele>265</ele>
        <time>2025-02-07T09:04:16Z</time>
      </trkpt>
      <trkpt lat="44.35172" lon="4.0868">
        <ele>264</ele>
        <time>2025-02-07T09:04:33Z</time>
      </trkpt>
      <trkpt lat="44.35164" lon="4.08706">
        <ele>263</ele>
        <time>2025-02-07T09:05:00Z</time>
      </trkpt>
      <trkpt lat="44.35158" lon="4.08752">
        <ele>263</ele>
        <time>2025-02-07T09:05:45Z</time>
      </trkpt>
      <trkpt lat="44.35144" lon="4.08772">
        <ele>262</ele>
        <time>2025-02-07T09:06:11Z</time>
      </trkpt>
      <trkpt lat="44.35124" lon="4.08787">
        <ele>261</ele>
        <time>2025-02-07T09:06:42Z</time>
      </trkpt>
      <trkpt lat="44.35107" lon="4.08798">
        <ele>259</ele>
        <time>2025-02-07T09:07:07Z</time>
      </trkpt>
      <trkpt lat="44.3509" lon="4.08819">
        <ele>257</ele>
        <time>2025-02-07T09:07:37Z</time>
      </trkpt>
      <trkpt lat="44.35114" lon="4.08958">
        <ele>258</ele>
        <time>2025-02-07T09:09:53Z</time>
      </trkpt>
      <trkpt lat="44.35113" lon="4.08967">
        <ele>257</ele>
        <time>2025-02-07T09:10:02Z</time>
      </trkpt>
      <trkpt lat="44.35117" lon="4.08974">
        <ele>258</ele>
        <time>2025-02-07T09:10:11Z</time>
      </trkpt>
      <trkpt lat="44.35115" lon="4.0898">
        <ele>257</ele>
        <time>2025-02-07T09:10:17Z</time>
      </trkpt>
      <trkpt lat="44.35123" lon="4.09005">
        <ele>258</ele>
        <time>2025-02-07T09:10:43Z</time>
      </trkpt>
      <trkpt lat="44.35137" lon="4.09073">
        <ele>259</ele>
        <time>2025-02-07T09:11:51Z</time>
      </trkpt>
      <trkpt lat="44.35144" lon="4.09072">
        <ele>260</ele>
        <time>2025-02-07T09:12:00Z</time>
      </trkpt>
      <trkpt lat="44.35149" lon="4.09068">
        <ele>261</ele>
        <time>2025-02-07T09:12:08Z</time>
      </trkpt>
      <trkpt lat="44.35154" lon="4.09067">
        <ele>262</ele>
        <time>2025-02-07T09:12:14Z</time>
      </trkpt>
      <trkpt lat="44.3516" lon="4.09069">
        <ele>262</ele>
        <time>2025-02-07T09:12:23Z</time>
      </trkpt>
      <trkpt lat="44.35167" lon="4.09082">
        <ele>263</ele>
        <time>2025-02-07T09:12:38Z</time>
      </trkpt>
      <trkpt lat="44.35174" lon="4.09126">
        <ele>263</ele>
        <time>2025-02-07T09:13:21Z</time>
      </trkpt>
      <trkpt lat="44.35184" lon="4.09171">
        <ele>263</ele>
        <time>2025-02-07T09:14:06Z</time>
      </trkpt>
      <trkpt lat="44.35186" lon="4.09189">
        <ele>263</ele>
        <time>2025-02-07T09:14:24Z</time>
      </trkpt>
      <trkpt lat="44.35181" lon="4.0919">
        <ele>262</ele>
        <time>2025-02-07T09:14:30Z</time>
      </trkpt>
      <trkpt lat="44.35185" lon="4.09198">
        <ele>263</ele>
        <time>2025-02-07T09:14:40Z</time>
      </trkpt>
      <trkpt lat="44.35185" lon="4.09208">
        <ele>262</ele>
        <time>2025-02-07T09:14:49Z</time>
      </trkpt>
      <trkpt lat="44.35192" lon="4.0924">
        <ele>263</ele>
        <time>2025-02-07T09:15:21Z</time>
      </trkpt>
      <trkpt lat="44.35193" lon="4.09274">
        <ele>262</ele>
        <time>2025-02-07T09:15:54Z</time>
      </trkpt>
      <trkpt lat="44.352" lon="4.09307">
        <ele>262</ele>
        <time>2025-02-07T09:16:26Z</time>
      </trkpt>
      <trkpt lat="44.35199" lon="4.09314">
        <ele>261</ele>
        <time>2025-02-07T09:16:33Z</time>
      </trkpt>
      <trkpt lat="44.35203" lon="4.09327">
        <ele>262</ele>
        <time>2025-02-07T09:16:47Z</time>
      </trkpt>
      <trkpt lat="44.35204" lon="4.09354">
        <ele>261</ele>
        <time>2025-02-07T09:17:12Z</time>
      </trkpt>
      <trkpt lat="44.35207" lon="4.09359">
        <ele>261</ele>
        <time>2025-02-07T09:17:19Z</time>
      </trkpt>
      <trkpt lat="44.35213" lon="4.09401">
        <ele>261</ele>
        <time>2025-02-07T09:18:00Z</time>
      </trkpt>
      <trkpt lat="44.3522" lon="4.09416">
        <ele>261</ele>
        <time>2025-02-07T09:18:17Z</time>
      </trkpt>
      <trkpt lat="44.35225" lon="4.09438">
        <ele>261</ele>
        <time>2025-02-07T09:18:39Z</time>
      </trkpt>
      <trkpt lat="44.35224" lon="4.0945">
        <ele>260</ele>
        <time>2025-02-07T09:18:50Z</time>
      </trkpt>
      <trkpt lat="44.35226" lon="4.09465">
        <ele>259</ele>
        <time>2025-02-07T09:19:05Z</time>
      </trkpt>
      <trkpt lat="44.35219" lon="4.09465">
        <ele>258</ele>
        <time>2025-02-07T09:19:14Z</time>
      </trkpt>
      <trkpt lat="44.35222" lon="4.09471">
        <ele>258</ele>
        <time>2025-02-07T09:19:21Z</time>
      </trkpt>
      <trkpt lat="44.35224" lon="4.0948">
        <ele>258</ele>
        <time>2025-02-07T09:19:30Z</time>
      </trkpt>
      <trkpt lat="44.35245" lon="4.09524">
        <ele>257</ele>
        <time>2025-02-07T09:20:21Z</time>
      </trkpt>
      <trkpt lat="44.35249" lon="4.09537">
        <ele>256</ele>
        <time>2025-02-07T09:20:34Z</time>
      </trkpt>
      <trkpt lat="44.35249" lon="4.09547">
        <ele>255</ele>
        <time>2025-02-07T09:20:44Z</time>
      </trkpt>
      <trkpt lat="44.35255" lon="4.09578">
        <ele>253</ele>
        <time>2025-02-07T09:21:14Z</time>
      </trkpt>
      <trkpt lat="44.35259" lon="4.09591">
        <ele>252</ele>
        <time>2025-02-07T09:21:28Z</time>
      </trkpt>
      <trkpt lat="44.35267" lon="4.09635">
        <ele>251</ele>
        <time>2025-02-07T09:22:11Z</time>
      </trkpt>
      <trkpt lat="44.35266" lon="4.09666">
        <ele>249</ele>
        <time>2025-02-07T09:22:41Z</time>
      </trkpt>
      <trkpt lat="44.35257" lon="4.09673">
        <ele>248</ele>
        <time>2025-02-07T09:22:54Z</time>
      </trkpt>
      <trkpt lat="44.3525" lon="4.09677">
        <ele>248</ele>
        <time>2025-02-07T09:23:05Z</time>
      </trkpt>
      <trkpt lat="44.35244" lon="4.09674">
        <ele>248</ele>
        <time>2025-02-07T09:23:13Z</time>
      </trkpt>
      <trkpt lat="44.35236" lon="4.09676">
        <ele>247</ele>
        <time>2025-02-07T09:23:24Z</time>
      </trkpt>
      <trkpt lat="44.35219" lon="4.09684">
        <ele>247</ele>
        <time>2025-02-07T09:23:48Z</time>
      </trkpt>
      <trkpt lat="44.35202" lon="4.09696">
        <ele>247</ele>
        <time>2025-02-07T09:24:13Z</time>
      </trkpt>
      <trkpt lat="44.35196" lon="4.09708">
        <ele>247</ele>
        <time>2025-02-07T09:24:27Z</time>
      </trkpt>
      <trkpt lat="44.35197" lon="4.09735">
        <ele>246</ele>
        <time>2025-02-07T09:24:53Z</time>
      </trkpt>
      <trkpt lat="44.35195" lon="4.09741">
        <ele>246</ele>
        <time>2025-02-07T09:24:59Z</time>
      </trkpt>
      <trkpt lat="44.35188" lon="4.09749">
        <ele>246</ele>
        <time>2025-02-07T09:25:11Z</time>
      </trkpt>
      <trkpt lat="44.35172" lon="4.09757">
        <ele>247</ele>
        <time>2025-02-07T09:25:34Z</time>
      </trkpt>
      <trkpt lat="44.35167" lon="4.09761">
        <ele>247</ele>
        <time>2025-02-07T09:25:42Z</time>
      </trkpt>
      <trkpt lat="44.35157" lon="4.09765">
        <ele>250</ele>
        <time>2025-02-07T09:25:56Z</time>
      </trkpt>
      <trkpt lat="44.35153" lon="4.09766">
        <ele>251</ele>
        <time>2025-02-07T09:26:01Z</time>
      </trkpt>
      <trkpt lat="44.35145" lon="4.09762">
        <ele>252</ele>
        <time>2025-02-07T09:26:12Z</time>
      </trkpt>
      <trkpt lat="44.35145" lon="4.09752">
        <ele>252</ele>
        <time>2025-02-07T09:26:22Z</time>
      </trkpt>
      <trkpt lat="44.35138" lon="4.09719">
        <ele>254</ele>
        <time>2025-02-07T09:26:55Z</time>
      </trkpt>
      <trkpt lat="44.35136" lon="4.0967">
        <ele>254</ele>
        <time>2025-02-07T09:27:42Z</time>
      </trkpt>
      <trkpt lat="44.35132" lon="4.09664">
        <ele>255</ele>
        <time>2025-02-07T09:27:49Z</time>
      </trkpt>
      <trkpt lat="44.35132" lon="4.09656">
        <ele>255</ele>
        <time>2025-02-07T09:27:57Z</time>
      </trkpt>
      <trkpt lat="44.35123" lon="4.09631">
        <ele>256</ele>
        <time>2025-02-07T09:28:24Z</time>
      </trkpt>
      <trkpt lat="44.35116" lon="4.09584">
        <ele>256</ele>
        <time>2025-02-07T09:29:10Z</time>
      </trkpt>
      <trkpt lat="44.35114" lon="4.09547">
        <ele>257</ele>
        <time>2025-02-07T09:29:45Z</time>
      </trkpt>
      <trkpt lat="44.35114" lon="4.09557">
        <ele>257</ele>
        <time>2025-02-07T09:29:55Z</time>
      </trkpt>
      <trkpt lat="44.35108" lon="4.09556">
        <ele>258</ele>
        <time>2025-02-07T09:30:03Z</time>
      </trkpt>
      <trkpt lat="44.35112" lon="4.09557">
        <ele>257</ele>
        <time>2025-02-07T09:30:08Z</time>
      </trkpt>
      <trkpt lat="44.35114" lon="4.09549">
        <ele>257</ele>
        <time>2025-02-07T09:30:16Z</time>
      </trkpt>
      <trkpt lat="44.35111" lon="4.09526">
        <ele>257</ele>
        <time>2025-02-07T09:30:38Z</time>
      </trkpt>
      <trkpt lat="44.35112" lon="4.09516">
        <ele>257</ele>
        <time>2025-02-07T09:30:48Z</time>
      </trkpt>
      <trkpt lat="44.35115" lon="4.09508">
        <ele>256</ele>
        <time>2025-02-07T09:30:57Z</time>
      </trkpt>
      <trkpt lat="44.35108" lon="4.09503">
        <ele>257</ele>
        <time>2025-02-07T09:31:07Z</time>
      </trkpt>
      <trkpt lat="44.35096" lon="4.09503">
        <ele>259</ele>
        <time>2025-02-07T09:31:23Z</time>
      </trkpt>
      <trkpt lat="44.35101" lon="4.09501">
        <ele>258</ele>
        <time>2025-02-07T09:31:30Z</time>
      </trkpt>
      <trkpt lat="44.35105" lon="4.09503">
        <ele>258</ele>
        <time>2025-02-07T09:31:36Z</time>
      </trkpt>
      <trkpt lat="44.35111" lon="4.09495">
        <ele>257</ele>
        <time>2025-02-07T09:31:47Z</time>
      </trkpt>
      <trkpt lat="44.35113" lon="4.09475">
        <ele>257</ele>
        <time>2025-02-07T09:32:06Z</time>
      </trkpt>
      <trkpt lat="44.35111" lon="4.09443">
        <ele>257</ele>
        <time>2025-02-07T09:32:37Z</time>
      </trkpt>
      <trkpt lat="44.35116" lon="4.09422">
        <ele>256</ele>
        <time>2025-02-07T09:32:58Z</time>
      </trkpt>
      <trkpt lat="44.35124" lon="4.09414">
        <ele>255</ele>
        <time>2025-02-07T09:33:11Z</time>
      </trkpt>
      <trkpt lat="44.35138" lon="4.09411">
        <ele>254</ele>
        <time>2025-02-07T09:33:30Z</time>
      </trkpt>
      <trkpt lat="44.35148" lon="4.09411">
        <ele>253</ele>
        <time>2025-02-07T09:33:43Z</time>
        <extensions>
          <visugpx:TrkExtension xmlns:visugpx="https://www.visugpx.com/editgpx/">
            <visugpx:node>2</visugpx:node>
            </visugpx:TrkExtension>
        </extensions>
      </trkpt>
    </trkseg>
  </trk>
</gpx>